Strona główna
METAR-TAF:

METAR-TAF

Lotnisko :

Luni

Sarzana, Włochy

Szerokość geograficzna: 44-05N, Długość geograficzna: 009-59E, wysokość: 9 m

Aktualna obserwacja pogody

Raport powstał 1 godzina i 15 minut temu, godzina 09:55 UTC
Wiatr 1 kt od wschodnio-południowy wschód
Temperatura 12°C
Wilgotność 100%
Ciśnienie 1024 hPa
Widzialność: 5000 m
Rozproszone chmury na wysokości 500 ft
Przerywane chmury na wysokości 1500 ft
słaby deszcz, zamglenie

METAR: LIQW 180955Z 12001KT 5000 -RA BR SCT005 BKN015 12/12 Q1024 RMK OVC VIS MIN 5000 WIND THR18 14004KT WHT

czas: 12:10 (11:10 UTC)

Prognoza

Raport powstał 3 godziny i 10 minut temu, godzina 08:00 UTC
Prognoza ważna od 18 godzina 09 UTC do 18 godzina 18 UTC
Wiatr 5 kt od południowy wschód
Widzialność: 5000 m
Rozproszone chmury na wysokości 1000 ft
Przerywane chmury na wysokości 2000 ft
deszcz
Stopniowe zmiany
od 18 godzina 10 UTC do 18 godzina 12 UTC
Widzialność: 8000 m

TAF: LIQW 180800Z 1809/1818 14005KT 5000 RA SCT010 BKN020 BECMG 1810/1812 8000 NSW

Obserwacja i prognoza pogody dla ponad 4000 lotnisk (raport METAR i TAF).

Dostępne stacje oznaczono żółtymi i czerwonymi punktami na mapie.

Najedź kursorem aby zobaczyć nazwę stacji.

Kliknij aby zobaczyć obserwacje i prognozy pogody.

Aby zmienić mapę: kliknij na zielony przycisk z czarnym krzyżykiem, aby powiększyć; na zielony przycisk z myślnikiem, aby pomniejszyć; na zielone strzałki, aby przejść do map sąsiednich.


METAR-TAF: